createdAt,value
2023-01-23T00:00:01.286Z,26.80
2023-01-23T00:20:00.280Z,35.20
2023-01-23T00:30:00.913Z,31.60
2023-01-23T00:40:00.838Z,27.90
2023-01-23T01:00:00.881Z,36.00
2023-01-23T01:10:01.466Z,32.10
2023-01-23T01:20:01.057Z,32.10
2023-01-23T01:30:01.349Z,26.80
2023-01-23T01:40:01.236Z,33.40
2023-01-23T02:00:00.825Z,30.70
2023-01-23T02:10:01.191Z,36.00
2023-01-23T02:20:01.317Z,29.30
2023-01-23T02:30:01.391Z,29.70
2023-01-23T02:40:01.511Z,31.30
2023-01-23T02:50:01.465Z,40.10
2023-01-23T03:00:01.301Z,29.90
2023-01-23T03:10:01.653Z,35.40
2023-01-23T03:20:01.929Z,31.50
2023-01-23T03:40:02.042Z,34.40
2023-01-23T03:50:00.891Z,35.40
2023-01-23T04:00:00.851Z,34.80
2023-01-23T04:20:00.808Z,32.00
2023-01-23T04:40:01.031Z,28.30
2023-01-23T04:50:01.618Z,31.80
2023-01-23T05:00:00.755Z,32.00
2023-01-23T05:10:01.218Z,28.20
2023-01-23T05:20:01.032Z,25.90
2023-01-23T05:30:00.755Z,30.90
2023-01-23T05:40:01.077Z,42.20
2023-01-23T06:00:01.500Z,38.40
2023-01-23T06:10:00.977Z,39.50
2023-01-23T06:20:00.903Z,36.10
2023-01-23T06:40:01.346Z,34.50
2023-01-23T06:50:01.197Z,35.20
2023-01-23T07:00:00.280Z,27.80
2023-01-23T07:10:01.333Z,32.00
2023-01-23T07:20:01.045Z,31.60
2023-01-23T07:30:00.974Z,32.50
2023-01-23T07:40:01.021Z,29.20
2023-01-23T08:00:00.822Z,38.30
2023-01-23T08:10:00.941Z,37.20
2023-01-23T08:20:01.458Z,34.40
2023-01-23T08:40:01.199Z,28.00
2023-01-23T08:50:01.114Z,34.60
2023-01-23T09:00:00.820Z,35.40
2023-01-23T09:10:01.004Z,38.30
2023-01-23T09:20:01.302Z,41.00
2023-01-23T09:30:00.931Z,38.20
2023-01-23T09:40:00.823Z,32.10
2023-01-23T09:50:01.212Z,36.30
2023-01-23T10:00:01.232Z,39.70
2023-01-23T10:10:01.196Z,34.30
2023-01-23T10:20:00.796Z,35.00
2023-01-23T10:30:01.408Z,37.80
2023-01-23T10:40:00.884Z,37.30
2023-01-23T10:50:00.885Z,36.60
2023-01-23T11:00:01.117Z,47.80
2023-01-23T11:10:00.443Z,34.50
2023-01-23T11:20:00.838Z,30.90
2023-01-23T11:40:00.881Z,42.90
2023-01-23T11:50:02.429Z,35.60
2023-01-23T12:00:01.297Z,34.80
2023-01-23T12:20:01.097Z,42.10
2023-01-23T12:40:01.269Z,35.70
2023-01-23T13:00:02.687Z,26.40
2023-01-23T13:20:02.692Z,26.10
2023-01-23T13:30:01.206Z,30.60
2023-01-23T13:40:06.105Z,21.30
2023-01-23T14:00:01.434Z,22.10
2023-01-23T14:10:01.125Z,24.90
2023-01-23T14:20:00.276Z,24.30
2023-01-23T14:30:01.178Z,28.20
2023-01-23T14:40:06.791Z,31.20
2023-01-23T15:00:00.832Z,33.00
2023-01-23T15:10:00.955Z,32.80
2023-01-23T15:20:01.040Z,31.40
2023-01-23T15:40:01.233Z,26.80
2023-01-23T15:50:01.180Z,29.10
2023-01-23T16:00:03.385Z,29.50
2023-01-23T16:20:01.247Z,37.50
2023-01-23T16:30:01.185Z,35.70
2023-01-23T16:40:02.144Z,33.60
2023-01-23T16:50:02.526Z,35.30
2023-01-23T17:00:02.288Z,30.50
2023-01-23T17:10:01.157Z,26.60
2023-01-23T17:20:01.020Z,31.50
2023-01-23T17:30:02.140Z,45.90
2023-01-23T17:40:01.882Z,54.90
2023-01-23T17:50:02.961Z,39.30
2023-01-23T18:00:01.986Z,27.20
2023-01-23T18:10:01.087Z,23.70
2023-01-23T18:20:01.032Z,29.50
2023-01-23T18:30:02.941Z,24.30
2023-01-23T18:40:01.261Z,25.10
2023-01-23T18:50:02.603Z,30.90
2023-01-23T19:00:02.410Z,24.80
2023-01-23T19:20:01.078Z,28.30
2023-01-23T19:30:01.351Z,26.50
2023-01-23T19:40:01.014Z,26.20
2023-01-23T20:00:00.277Z,24.60
2023-01-23T20:10:02.310Z,23.30
2023-01-23T20:20:01.445Z,22.10
2023-01-23T20:40:01.037Z,26.40
2023-01-23T21:00:03.212Z,25.40
2023-01-23T21:10:02.476Z,21.60
2023-01-23T21:20:00.290Z,25.00
2023-01-23T21:30:01.427Z,23.80
2023-01-23T21:40:01.021Z,21.10
2023-01-23T21:50:03.058Z,29.10
2023-01-23T22:00:01.320Z,26.40
2023-01-23T22:10:01.605Z,22.40
2023-01-23T22:20:01.302Z,28.20
2023-01-23T22:30:01.893Z,23.40
2023-01-23T22:40:01.036Z,26.70
2023-01-23T23:00:01.018Z,22.50
2023-01-23T23:10:01.204Z,23.40
2023-01-23T23:20:00.979Z,28.10
2023-01-23T23:30:01.209Z,28.20
2023-01-23T23:40:01.045Z,35.40
2023-01-23T23:50:01.608Z,29.50
